Portada
METAR-TAF:

METAR-TAF

Aeropuertos :

Coro, Venezuela

Aeropuerto José Leonardo Chirino

latitud: 11-25N, longitud: 069-41W, altitud: 16 m

Observación

El informe se hizo hace 8 horas y 0 minutos, a las 18:00 UTC
Viento 14 kt del este-noreste
Temperatura 32°C
Humedad 63%
Presión 1012 hPa
Visibilidad 10 km o más
Nubes dispersas a una altura de 2000 ft

METAR: SVCR 271800Z 07014KT 9999 SCT020 32/24 Q1012

Hora: 22:00 (02:00 UTC)


TAF: falta

Observaciones y pronósticos meteorológicos de más de 4000 aeropuertos (mensajes METAR y TAF).

Los puntos amarillos y rojos representan las estaciones disponibles.

Ponga el ratón en el punto deseado para ver el nombre de la estación.

Haga clic para ver las observaciones y los pronósticos meteorológicos.

Para cambiar el mapa : haga clic en los botones verdes con una cruz de color negro para hacer un zoom, en el botón verde con un guión para alejar o en las flechas verdes para mapas adyacentes.


METAR-TAF: